createdAt,value
2018-09-30T00:01:55.836Z,4.10
2018-09-30T00:04:22.960Z,4.20
2018-09-30T00:06:50.063Z,4.10
2018-09-30T00:09:17.194Z,4.10
2018-09-30T00:11:44.293Z,4.37
2018-09-30T00:14:11.419Z,4.30
2018-09-30T00:16:38.659Z,4.30
2018-09-30T00:19:05.830Z,4.77
2018-09-30T00:21:32.942Z,4.30
2018-09-30T00:24:05.365Z,3.90
2018-09-30T00:26:37.857Z,4.43
2018-09-30T00:29:05.033Z,4.67
2018-09-30T00:31:32.201Z,4.20
2018-09-30T00:34:04.824Z,4.73
2018-09-30T00:36:32.015Z,4.20
2018-09-30T00:38:59.157Z,4.83
2018-09-30T00:41:26.270Z,4.50
2018-09-30T00:43:53.406Z,4.40
2018-09-30T00:46:20.503Z,3.87
2018-09-30T00:48:47.619Z,4.50
2018-09-30T00:51:14.721Z,3.80
2018-09-30T00:53:41.830Z,4.33
2018-09-30T00:56:08.942Z,3.70
2018-09-30T00:58:36.074Z,4.30
2018-09-30T01:01:03.205Z,4.13
2018-09-30T01:03:30.322Z,3.90
2018-09-30T01:08:31.204Z,4.10
2018-09-30T01:10:58.357Z,4.17
2018-09-30T01:13:25.474Z,3.87
2018-09-30T01:15:52.657Z,4.17
2018-09-30T01:18:19.773Z,3.90
2018-09-30T01:20:46.907Z,4.33
2018-09-30T01:23:14.015Z,3.70
2018-09-30T01:25:41.129Z,3.47
2018-09-30T01:28:08.266Z,3.40
2018-09-30T01:30:35.355Z,3.83
2018-09-30T01:33:02.516Z,4.20
2018-09-30T01:35:29.610Z,3.80
2018-09-30T01:37:56.739Z,4.07
2018-09-30T01:41:53.160Z,3.67
2018-09-30T01:44:20.267Z,3.50
2018-09-30T01:46:47.454Z,3.97
2018-09-30T01:49:14.574Z,3.47
2018-09-30T01:51:41.748Z,3.50
2018-09-30T01:54:08.889Z,3.37
2018-09-30T01:56:36.009Z,3.40
2018-09-30T01:59:03.115Z,3.23
2018-09-30T02:01:30.251Z,3.00
2018-09-30T02:03:57.358Z,3.30
2018-09-30T02:06:24.473Z,3.10
2018-09-30T02:08:51.568Z,2.93
2018-09-30T02:11:18.695Z,3.00
2018-09-30T02:13:45.793Z,2.77
2018-09-30T02:16:12.923Z,3.13
2018-09-30T02:18:40.121Z,3.30
2018-09-30T02:21:07.244Z,3.17
2018-09-30T02:23:34.410Z,3.20
2018-09-30T02:26:01.534Z,3.30
2018-09-30T02:28:28.633Z,3.37
2018-09-30T02:30:55.763Z,3.03
2018-09-30T02:33:22.857Z,3.60
2018-09-30T02:35:49.971Z,3.40
2018-09-30T02:38:17.079Z,3.53
2018-09-30T02:40:44.189Z,3.57
2018-09-30T02:43:11.328Z,3.70
2018-09-30T02:45:38.470Z,3.33
2018-09-30T02:48:05.587Z,3.00
2018-09-30T02:50:32.719Z,3.90
2018-09-30T02:52:59.903Z,3.70
2018-09-30T02:55:27.027Z,3.70
2018-09-30T02:57:54.132Z,3.90
2018-09-30T03:00:21.237Z,3.27
2018-09-30T03:02:48.332Z,3.57
2018-09-30T03:05:15.462Z,4.10
2018-09-30T03:07:47.969Z,3.50
2018-09-30T03:10:15.082Z,3.30
2018-09-30T03:12:42.189Z,3.30
2018-09-30T03:15:09.307Z,2.90
2018-09-30T03:17:36.421Z,2.73
2018-09-30T03:20:03.542Z,2.70
2018-09-30T03:22:30.638Z,2.60
2018-09-30T03:24:57.767Z,2.93
2018-09-30T03:27:24.878Z,3.07
2018-09-30T03:29:52.007Z,3.20
2018-09-30T03:32:19.116Z,3.30
2018-09-30T03:34:46.467Z,3.33
2018-09-30T03:37:13.633Z,3.17
2018-09-30T03:39:40.938Z,3.30
2018-09-30T03:42:07.980Z,3.60
2018-09-30T03:44:35.092Z,3.17
2018-09-30T03:47:02.270Z,2.77
2018-09-30T03:49:29.369Z,3.20
2018-09-30T03:51:56.551Z,2.70
2018-09-30T03:54:23.658Z,3.13
2018-09-30T03:56:50.852Z,3.20
2018-09-30T03:59:17.951Z,3.43
2018-09-30T04:01:45.102Z,2.97
2018-09-30T04:04:12.304Z,3.03
2018-09-30T04:06:39.444Z,3.10
2018-09-30T04:09:07.154Z,3.20
2018-09-30T04:11:34.265Z,3.40
2018-09-30T04:14:01.383Z,3.10
2018-09-30T04:16:28.497Z,3.07
2018-09-30T04:18:55.619Z,3.00
2018-09-30T04:21:22.766Z,3.00
2018-09-30T04:23:54.198Z,3.30
2018-09-30T04:26:21.311Z,3.67
2018-09-30T04:28:48.423Z,3.00
2018-09-30T04:31:15.583Z,3.03
2018-09-30T04:33:42.706Z,2.80
2018-09-30T04:36:09.824Z,3.10
2018-09-30T04:38:36.957Z,2.63
2018-09-30T04:41:04.070Z,2.80
2018-09-30T04:43:31.186Z,2.70
2018-09-30T04:45:58.294Z,2.50
2018-09-30T04:48:25.394Z,2.40
2018-09-30T04:50:52.510Z,2.53
2018-09-30T04:53:19.636Z,2.10
2018-09-30T04:55:46.773Z,3.10
2018-09-30T04:58:13.910Z,2.03
2018-09-30T05:00:41.033Z,2.70
2018-09-30T05:03:08.146Z,2.33
2018-09-30T05:05:35.302Z,2.10
2018-09-30T05:08:02.364Z,2.67
2018-09-30T05:10:29.462Z,2.67
2018-09-30T05:12:56.585Z,2.60
2018-09-30T05:15:23.690Z,2.40
2018-09-30T05:17:50.787Z,2.40
2018-09-30T05:20:17.901Z,2.73
2018-09-30T05:22:45.046Z,2.27
2018-09-30T05:25:12.169Z,2.47
2018-09-30T05:27:39.277Z,2.10
2018-09-30T05:30:06.438Z,2.30
2018-09-30T05:32:33.544Z,2.67
2018-09-30T05:35:00.672Z,2.27
2018-09-30T05:37:27.795Z,2.63
2018-09-30T05:39:54.927Z,2.47
2018-09-30T05:42:22.053Z,2.20
2018-09-30T05:44:49.190Z,2.30
2018-09-30T05:47:16.363Z,2.23
2018-09-30T05:49:43.477Z,2.00
2018-09-30T05:52:10.575Z,2.50
2018-09-30T05:54:37.674Z,2.63
2018-09-30T05:57:04.819Z,2.70
2018-09-30T05:59:31.922Z,2.20
2018-09-30T06:01:59.039Z,2.27
2018-09-30T06:04:26.206Z,2.57
2018-09-30T06:06:53.343Z,2.40
2018-09-30T06:09:20.547Z,2.17
2018-09-30T06:11:47.716Z,2.20
2018-09-30T06:14:15.602Z,2.30
2018-09-30T06:16:42.892Z,2.50
2018-09-30T06:19:10.018Z,2.07
2018-09-30T06:21:37.395Z,2.40
2018-09-30T06:24:04.565Z,2.20
2018-09-30T06:26:31.677Z,2.60
2018-09-30T06:28:58.771Z,2.60
2018-09-30T06:31:25.998Z,2.90
2018-09-30T06:33:53.174Z,2.70
2018-09-30T06:36:20.357Z,2.50
2018-09-30T06:38:47.475Z,2.90
2018-09-30T06:41:14.588Z,3.00
2018-09-30T06:43:41.697Z,2.70
2018-09-30T06:46:08.802Z,3.10
2018-09-30T06:48:35.939Z,3.00
2018-09-30T06:51:03.108Z,3.20
2018-09-30T06:53:30.450Z,3.70
2018-09-30T06:55:57.581Z,4.03
2018-09-30T06:58:24.715Z,3.70
2018-09-30T07:00:51.835Z,4.37
2018-09-30T07:03:18.983Z,4.27
2018-09-30T07:05:46.118Z,3.50
2018-09-30T07:08:13.543Z,3.70
2018-09-30T07:10:40.682Z,3.80
2018-09-30T07:13:07.784Z,3.63
2018-09-30T07:15:34.890Z,4.80
2018-09-30T07:18:02.039Z,3.90
2018-09-30T07:20:29.155Z,3.70
2018-09-30T07:22:56.362Z,4.40
2018-09-30T07:25:23.492Z,4.50
2018-09-30T07:27:50.598Z,4.67
2018-09-30T07:30:17.816Z,4.40
2018-09-30T07:32:44.902Z,4.60
2018-09-30T07:35:12.047Z,4.80
2018-09-30T07:37:39.135Z,4.77
2018-09-30T07:40:06.269Z,4.07
2018-09-30T07:42:33.485Z,4.57
2018-09-30T07:45:00.610Z,4.03
2018-09-30T07:47:28.168Z,3.40
2018-09-30T07:49:55.263Z,3.73
2018-09-30T07:52:22.375Z,4.47
2018-09-30T07:54:49.518Z,3.80
2018-09-30T07:57:16.743Z,3.50
2018-09-30T07:59:43.846Z,3.30
2018-09-30T08:02:11.019Z,3.60
2018-09-30T08:04:38.143Z,2.90
2018-09-30T08:07:05.350Z,3.40
2018-09-30T08:09:32.573Z,2.97
2018-09-30T08:11:59.757Z,3.10
2018-09-30T08:14:26.882Z,2.80
2018-09-30T08:16:54.019Z,2.90
2018-09-30T08:19:21.147Z,3.20
2018-09-30T08:21:48.254Z,2.90
2018-09-30T08:24:15.489Z,2.40
2018-09-30T08:26:42.482Z,2.63
2018-09-30T08:29:09.742Z,3.10
2018-09-30T08:31:36.902Z,3.00
2018-09-30T08:34:04.082Z,2.87
2018-09-30T08:36:31.227Z,2.93
2018-09-30T08:38:58.345Z,3.33
2018-09-30T08:41:25.457Z,2.83
2018-09-30T08:43:52.630Z,2.83
2018-09-30T08:46:26.086Z,2.63
2018-09-30T08:48:53.204Z,2.60
2018-09-30T08:51:20.304Z,2.53
2018-09-30T08:53:47.462Z,2.80
2018-09-30T08:56:14.579Z,3.00
2018-09-30T08:58:41.646Z,3.20
2018-09-30T09:01:08.757Z,3.20
2018-09-30T09:03:35.913Z,2.50
2018-09-30T09:06:03.078Z,2.90
2018-09-30T09:08:30.271Z,2.63
2018-09-30T09:10:57.367Z,2.30
2018-09-30T09:13:24.472Z,2.57
2018-09-30T09:15:51.570Z,2.63
2018-09-30T09:18:18.719Z,2.13
2018-09-30T09:20:45.842Z,2.33
2018-09-30T09:23:13.035Z,2.50
2018-09-30T09:25:40.739Z,2.40
2018-09-30T09:28:08.078Z,2.40
2018-09-30T09:30:35.152Z,2.27
2018-09-30T09:33:02.326Z,2.27
2018-09-30T09:35:29.401Z,2.40
2018-09-30T09:37:56.506Z,2.13
2018-09-30T09:40:23.619Z,2.27
2018-09-30T09:42:50.747Z,2.73
2018-09-30T09:45:18.956Z,2.03
2018-09-30T09:47:46.075Z,2.13
2018-09-30T09:50:13.210Z,2.93
2018-09-30T09:52:40.392Z,2.00
2018-09-30T09:55:07.464Z,2.10
2018-09-30T09:57:34.561Z,2.10
2018-09-30T10:00:01.686Z,1.97
2018-09-30T10:02:28.810Z,2.13
2018-09-30T10:04:55.957Z,2.10
2018-09-30T10:07:23.046Z,2.30
2018-09-30T10:09:50.270Z,2.13
2018-09-30T10:12:17.385Z,2.00
2018-09-30T10:14:44.570Z,2.30
2018-09-30T10:17:11.678Z,2.47
2018-09-30T10:19:38.945Z,2.07
2018-09-30T10:22:05.915Z,2.03
2018-09-30T10:24:33.028Z,1.90
2018-09-30T10:27:00.137Z,2.03
2018-09-30T10:29:27.247Z,1.80
2018-09-30T10:31:54.451Z,2.37
2018-09-30T10:34:21.624Z,2.00
2018-09-30T10:36:48.763Z,2.00
2018-09-30T10:39:16.024Z,2.10
2018-09-30T10:41:43.075Z,2.30
2018-09-30T10:44:10.230Z,1.70
2018-09-30T10:46:37.579Z,1.80
2018-09-30T10:49:05.001Z,1.80
2018-09-30T10:51:32.120Z,1.83
2018-09-30T10:53:59.545Z,1.70
2018-09-30T10:56:26.779Z,2.20
2018-09-30T10:58:53.975Z,2.10
2018-09-30T11:01:21.081Z,2.50
2018-09-30T11:03:48.229Z,1.73
2018-09-30T11:06:15.651Z,2.10
2018-09-30T11:08:42.754Z,1.90
2018-09-30T11:11:09.885Z,2.17
2018-09-30T11:13:36.985Z,1.87
2018-09-30T11:16:04.252Z,2.00
2018-09-30T11:18:31.380Z,2.10
2018-09-30T11:20:58.508Z,2.00
2018-09-30T11:23:25.658Z,2.17
2018-09-30T11:25:52.791Z,2.10
2018-09-30T11:28:19.959Z,2.33
2018-09-30T11:30:47.093Z,2.27
2018-09-30T11:33:14.199Z,1.90
2018-09-30T11:35:41.318Z,2.20
2018-09-30T11:38:08.448Z,2.33
2018-09-30T11:40:35.594Z,2.40
2018-09-30T11:43:02.710Z,2.40
2018-09-30T11:45:29.826Z,2.10
2018-09-30T11:47:56.970Z,2.00
2018-09-30T11:50:24.163Z,2.23
2018-09-30T11:52:57.984Z,2.63
2018-09-30T11:55:25.136Z,2.00
2018-09-30T11:57:52.229Z,1.90
2018-09-30T12:00:19.494Z,2.23
2018-09-30T12:02:46.592Z,2.20
2018-09-30T12:05:13.727Z,2.20
2018-09-30T12:07:40.847Z,2.43
2018-09-30T12:10:08.000Z,2.40
2018-09-30T12:12:35.084Z,2.53
2018-09-30T12:15:02.199Z,2.40
2018-09-30T12:17:29.297Z,2.23
2018-09-30T12:19:56.583Z,2.10
2018-09-30T12:22:23.710Z,2.23
2018-09-30T12:24:50.912Z,2.43
2018-09-30T12:27:18.005Z,2.57
2018-09-30T12:29:45.140Z,1.70
2018-09-30T12:32:12.275Z,2.50
2018-09-30T12:34:39.383Z,2.30
2018-09-30T12:37:06.486Z,2.50
2018-09-30T12:39:33.597Z,2.60
2018-09-30T12:42:00.824Z,2.53
2018-09-30T12:44:28.220Z,2.57
2018-09-30T12:46:55.369Z,2.73
2018-09-30T12:49:22.512Z,2.73
2018-09-30T12:51:49.622Z,2.50
2018-09-30T12:54:16.938Z,3.17
2018-09-30T12:56:44.055Z,2.43
2018-09-30T12:59:11.247Z,3.00
2018-09-30T13:01:38.390Z,2.97
2018-09-30T13:04:05.540Z,3.37
2018-09-30T13:06:32.646Z,3.03
2018-09-30T13:08:59.774Z,2.63
2018-09-30T13:11:27.104Z,3.00
2018-09-30T13:13:54.231Z,3.33
2018-09-30T13:16:21.345Z,2.93
2018-09-30T13:18:48.446Z,3.43
2018-09-30T13:21:15.562Z,2.93
2018-09-30T13:23:42.763Z,2.97
2018-09-30T13:26:09.911Z,3.43
2018-09-30T13:28:37.034Z,3.20
2018-09-30T13:31:04.134Z,4.10
2018-09-30T13:33:31.377Z,3.63
2018-09-30T13:35:58.689Z,3.57
2018-09-30T13:38:25.852Z,3.77
2018-09-30T13:40:53.164Z,3.57
2018-09-30T13:43:20.167Z,4.60
2018-09-30T13:45:47.275Z,3.60
2018-09-30T13:48:14.455Z,3.57
2018-09-30T13:50:41.631Z,3.37
2018-09-30T13:53:08.813Z,3.10
2018-09-30T13:55:35.975Z,3.70
2018-09-30T13:58:03.099Z,3.07
2018-09-30T14:00:30.234Z,2.90
2018-09-30T14:02:57.407Z,3.03
2018-09-30T14:05:24.514Z,2.87
2018-09-30T14:07:51.738Z,3.00
2018-09-30T14:10:19.006Z,3.00
2018-09-30T14:12:46.195Z,5.70
2018-09-30T14:15:13.341Z,4.00
2018-09-30T14:17:40.562Z,2.70
2018-09-30T14:20:07.680Z,3.00
2018-09-30T14:22:34.890Z,2.70
2018-09-30T14:25:02.101Z,2.60
2018-09-30T14:27:29.470Z,3.00
2018-09-30T14:29:56.411Z,2.77
2018-09-30T14:32:23.604Z,2.47
2018-09-30T14:34:50.979Z,2.40
2018-09-30T14:37:21.081Z,2.30
2018-09-30T14:39:48.298Z,2.40
2018-09-30T14:42:15.424Z,2.33
2018-09-30T14:44:42.550Z,2.40
2018-09-30T14:47:09.685Z,2.30
2018-09-30T14:49:36.787Z,2.60
2018-09-30T14:52:03.929Z,2.80
2018-09-30T14:54:31.123Z,2.50
2018-09-30T14:56:58.193Z,2.67
2018-09-30T14:59:25.314Z,2.50
2018-09-30T15:01:52.469Z,1.90
2018-09-30T15:04:19.557Z,2.33
2018-09-30T15:06:46.667Z,2.53
2018-09-30T15:09:13.855Z,2.53
2018-09-30T15:11:41.086Z,3.00
2018-09-30T15:14:08.202Z,2.40
2018-09-30T15:16:35.449Z,2.60
2018-09-30T15:19:02.690Z,2.37
2018-09-30T15:21:29.850Z,2.70
2018-09-30T15:23:56.984Z,2.60
2018-09-30T15:26:24.140Z,2.13
2018-09-30T15:28:51.260Z,2.70
2018-09-30T15:31:18.470Z,2.00
2018-09-30T15:33:45.583Z,2.20
2018-09-30T15:36:12.699Z,2.27
2018-09-30T15:38:39.898Z,2.40
2018-09-30T15:41:07.040Z,2.00
2018-09-30T15:43:34.162Z,2.13
2018-09-30T15:46:01.522Z,2.10
2018-09-30T15:48:28.651Z,2.20
2018-09-30T15:50:55.757Z,2.20
2018-09-30T15:53:23.035Z,2.17
2018-09-30T15:55:50.135Z,2.23
2018-09-30T15:58:17.275Z,2.20
2018-09-30T16:00:44.378Z,2.30
2018-09-30T16:03:11.514Z,2.00
2018-09-30T16:05:38.676Z,2.27
2018-09-30T16:08:05.829Z,1.80
2018-09-30T16:10:33.267Z,1.90
2018-09-30T16:13:00.380Z,1.90
2018-09-30T16:15:27.506Z,2.00
2018-09-30T16:17:54.678Z,2.00
2018-09-30T16:20:21.840Z,2.00
2018-09-30T16:22:49.146Z,2.30
2018-09-30T16:25:16.391Z,2.17
2018-09-30T16:27:43.535Z,2.40
2018-09-30T16:30:10.623Z,2.40
2018-09-30T16:32:37.732Z,1.83
2018-09-30T16:35:04.894Z,1.70
2018-09-30T16:37:32.003Z,2.13
2018-09-30T16:39:59.122Z,1.87
2018-09-30T16:42:26.230Z,2.30
2018-09-30T16:44:53.338Z,2.40
2018-09-30T16:47:20.478Z,2.70
2018-09-30T16:49:47.866Z,2.70
2018-09-30T16:52:15.110Z,2.40
2018-09-30T16:54:42.228Z,2.40
2018-09-30T16:57:09.474Z,2.57
2018-09-30T16:59:36.646Z,2.33
2018-09-30T17:02:04.189Z,2.23
2018-09-30T17:04:31.291Z,2.50
2018-09-30T17:06:58.409Z,2.90
2018-09-30T17:09:25.551Z,3.97
2018-09-30T17:11:52.676Z,3.40
2018-09-30T17:14:19.874Z,2.83
2018-09-30T17:16:47.061Z,2.80
2018-09-30T17:19:14.175Z,2.47
2018-09-30T17:21:41.371Z,2.27
2018-09-30T17:24:08.454Z,2.20
2018-09-30T17:26:35.570Z,2.57
2018-09-30T17:29:02.699Z,2.50
2018-09-30T17:31:29.892Z,2.50
2018-09-30T17:33:57.019Z,2.47
2018-09-30T17:36:24.214Z,2.20
2018-09-30T17:38:51.410Z,2.50
2018-09-30T17:41:18.510Z,2.70
2018-09-30T17:43:45.711Z,2.80
2018-09-30T17:46:12.798Z,2.50
2018-09-30T17:48:39.902Z,2.20
2018-09-30T17:51:07.091Z,2.40
2018-09-30T17:53:34.143Z,2.27
2018-09-30T17:56:01.265Z,2.00
2018-09-30T17:58:28.394Z,2.13
2018-09-30T18:00:55.531Z,2.13
2018-09-30T18:03:22.912Z,2.40
2018-09-30T18:05:50.134Z,2.43
2018-09-30T18:08:17.230Z,2.40
2018-09-30T18:10:44.392Z,2.80
2018-09-30T18:13:11.586Z,2.67
2018-09-30T18:15:39.262Z,2.60
2018-09-30T18:18:06.474Z,2.70
2018-09-30T18:20:33.579Z,2.60
2018-09-30T18:23:00.714Z,2.37
2018-09-30T18:25:27.826Z,2.57
2018-09-30T18:27:54.977Z,2.23
2018-09-30T18:30:22.096Z,2.50
2018-09-30T18:32:49.259Z,2.20
2018-09-30T18:35:16.429Z,2.60
2018-09-30T18:37:43.548Z,2.30
2018-09-30T18:40:10.885Z,2.50
2018-09-30T18:42:37.999Z,2.00
2018-09-30T18:45:05.203Z,2.40
2018-09-30T18:47:32.389Z,2.70
2018-09-30T18:49:59.515Z,1.90
2018-09-30T18:52:26.677Z,2.20
2018-09-30T18:54:53.930Z,1.90
2018-09-30T18:57:21.061Z,2.17
2018-09-30T18:59:48.145Z,2.20
2018-09-30T19:02:16.039Z,2.10
2018-09-30T19:04:43.190Z,2.80
2018-09-30T19:07:10.301Z,1.90
2018-09-30T19:09:37.459Z,2.00
2018-09-30T19:12:04.623Z,2.93
2018-09-30T19:14:31.735Z,2.40
2018-09-30T19:16:58.851Z,2.53
2018-09-30T19:19:25.990Z,2.60
2018-09-30T19:21:53.124Z,2.70
2018-09-30T19:24:20.274Z,2.57
2018-09-30T19:26:47.371Z,2.07
2018-09-30T19:29:14.521Z,2.20
2018-09-30T19:31:41.655Z,2.30
2018-09-30T19:34:08.842Z,2.33
2018-09-30T19:36:36.016Z,2.33
2018-09-30T19:39:03.899Z,2.50
2018-09-30T19:41:31.042Z,2.40
2018-09-30T19:43:58.439Z,2.47
2018-09-30T19:46:25.545Z,2.63
2018-09-30T19:48:52.950Z,2.50
2018-09-30T19:51:20.015Z,2.77
2018-09-30T19:53:47.249Z,2.90
2018-09-30T19:56:14.377Z,2.47
2018-09-30T19:58:41.657Z,2.93
2018-09-30T20:01:08.951Z,3.50
2018-09-30T20:03:35.969Z,3.20
2018-09-30T20:06:03.410Z,2.87
2018-09-30T20:08:30.671Z,2.80
2018-09-30T20:10:57.999Z,3.00
2018-09-30T20:13:25.346Z,2.83
2018-09-30T20:15:52.490Z,2.93
2018-09-30T20:18:19.598Z,3.37
2018-09-30T20:20:46.777Z,3.03
2018-09-30T20:23:13.834Z,3.00
2018-09-30T20:25:41.014Z,2.93
2018-09-30T20:28:08.158Z,3.30
2018-09-30T20:30:35.266Z,2.97
2018-09-30T20:33:02.401Z,3.23
2018-09-30T20:35:29.529Z,3.13
2018-09-30T20:37:56.758Z,3.23
2018-09-30T20:40:23.895Z,3.60
2018-09-30T20:42:51.015Z,3.53
2018-09-30T20:45:18.161Z,3.40
2018-09-30T20:47:45.388Z,3.40
2018-09-30T20:50:12.536Z,3.20
2018-09-30T20:52:39.637Z,3.20
2018-09-30T20:55:06.866Z,3.30
2018-09-30T20:57:33.991Z,3.17
2018-09-30T21:00:01.269Z,3.40
2018-09-30T21:02:28.379Z,3.10
2018-09-30T21:04:55.568Z,3.40
2018-09-30T21:07:22.637Z,3.57
2018-09-30T21:09:49.822Z,3.20
2018-09-30T21:12:16.950Z,3.40
2018-09-30T21:14:44.088Z,3.40
2018-09-30T21:17:11.226Z,3.50
2018-09-30T21:19:38.393Z,3.33
2018-09-30T21:22:05.530Z,3.67
2018-09-30T21:24:32.748Z,3.33
2018-09-30T21:26:59.921Z,3.97
2018-09-30T21:29:27.077Z,3.33
2018-09-30T21:31:54.195Z,3.20
2018-09-30T21:34:21.364Z,3.50
2018-09-30T21:36:48.473Z,3.57
2018-09-30T21:39:15.587Z,3.97
2018-09-30T21:41:42.700Z,3.83
2018-09-30T21:44:09.848Z,3.80
2018-09-30T21:46:37.614Z,4.10
2018-09-30T21:49:04.833Z,3.30
2018-09-30T21:51:31.937Z,3.40
2018-09-30T21:53:59.013Z,3.93
2018-09-30T21:56:26.989Z,3.40
2018-09-30T21:58:54.141Z,3.57
2018-09-30T22:03:55.058Z,3.67
2018-09-30T22:06:22.157Z,3.70
2018-09-30T22:08:49.516Z,3.77
2018-09-30T22:11:16.666Z,3.80
2018-09-30T22:13:43.779Z,3.87
2018-09-30T22:16:10.893Z,4.00
2018-09-30T22:18:38.033Z,3.70
2018-09-30T22:21:05.225Z,3.70
2018-09-30T22:23:32.334Z,4.00
2018-09-30T22:25:59.441Z,4.10
2018-09-30T22:28:26.561Z,3.83
2018-09-30T22:30:53.690Z,4.50
2018-09-30T22:33:20.815Z,4.47
2018-09-30T22:35:48.165Z,3.80
2018-09-30T22:38:15.277Z,4.10
2018-09-30T22:40:42.400Z,3.53
2018-09-30T22:43:09.570Z,3.90
2018-09-30T22:45:36.706Z,4.33
2018-09-30T22:48:03.860Z,4.30
2018-09-30T22:50:30.957Z,4.40
2018-09-30T22:52:58.121Z,4.00
2018-09-30T22:55:25.247Z,4.50
2018-09-30T22:57:52.369Z,4.10
2018-09-30T23:00:19.482Z,4.50
2018-09-30T23:02:46.578Z,4.63
2018-09-30T23:05:13.750Z,4.00
2018-09-30T23:07:40.910Z,4.20
2018-09-30T23:10:08.956Z,5.20
2018-09-30T23:12:36.078Z,4.13
2018-09-30T23:15:03.229Z,4.30
2018-09-30T23:17:30.407Z,4.40
2018-09-30T23:19:57.531Z,4.00
2018-09-30T23:22:24.623Z,4.30
2018-09-30T23:24:51.734Z,4.50
2018-09-30T23:27:18.879Z,4.50
2018-09-30T23:29:46.011Z,4.23
2018-09-30T23:32:13.193Z,4.53
2018-09-30T23:34:40.326Z,4.60
2018-09-30T23:37:07.442Z,5.00
2018-09-30T23:39:34.594Z,4.97
2018-09-30T23:42:01.697Z,4.60
2018-09-30T23:44:28.865Z,4.90
2018-09-30T23:46:55.981Z,4.90
2018-09-30T23:49:23.136Z,4.80
2018-09-30T23:51:50.317Z,4.80
2018-09-30T23:54:17.502Z,5.00
2018-09-30T23:56:44.610Z,4.63
2018-09-30T23:59:11.711Z,4.77
